Flight Track Log - Related Links

Times and Time Zones

All times are in EDT time to prevent confusion due to time zone crossing. See the UAL4533 flight status page for this flight to view local times or setup timezone preferences in your user account.

Time Position Orientation Groundspeed Altitude Reporting Facility
EDT Latitude Longitude Course Direction KTS MPH feet Rate Location/Type
Mon 06:22:10 AM 40.7333 -74.1167 315° West 196 226 2,900  Level New York TRACON
Mon 06:23:04 AM 40.7667 -74.0833 37° Northeast 237 273 3,800 1,833 Climbing New York TRACON
Mon 06:23:58 AM 40.7833 -74.1500 288° West 252 290 6,200 2,700 Climbing New York TRACON
Mon 06:24:00 AM 40.9037 -74.5694 309° West  Level Estimated
Mon 06:25:00 AM 40.9563 -74.6699 323° Northwest  Level Estimated
Mon 06:25:04 AM 40.8167 -74.2500 294° West 235 270 9,200  Level New York TRACON
Mon 06:25:58 AM 40.8500 -74.3167 303° West 271 312 10,100 474 Climbing New York TRACON
Mon 06:26:00 AM 41.0088 -74.7707 312° West  Level Estimated
Mon 06:26:58 AM 40.9333 -74.3833 329° Northwest 341 392 10,100  Level New York TRACON
Mon 06:27:00 AM 41.0612 -74.8716 315° West  Level Estimated
Mon 06:28:12 AM 41.0417 -74.4519 334° Northwest 342 394 10,800  Level New York Center
Mon 06:29:12 AM 41.1172 -74.5028 333° Northwest 342 394 12,100 1,450 Climbing New York Center
Mon 06:30:12 AM 41.2089 -74.5686 332° Northwest 342 394 13,700 1,450 Climbing New York Center
Mon 06:31:12 AM 41.2686 -74.6492 315° West 342 394 15,000 1,400 Climbing New York Center
Mon 06:32:12 AM 41.3358 -74.7581 309° West 344 396 16,500 1,400 Climbing New York Center
Mon 06:33:12 AM 41.3911 -74.8472 310° West 349 402 17,800 1,400 Climbing New York Center
Mon 06:34:12 AM 41.4581 -74.9564 309° West 354 407 19,300 1,500 Climbing New York Center
Mon 06:35:12 AM 41.5169 -75.0569 308° West 354 407 20,800 1,350 Climbing New York Center
Mon 06:36:12 AM 41.5758 -75.1606 307° West 359 413 22,000 600 Climbing New York Center
Mon 06:37:12 AM 41.6144 -75.2936 291° West 365 420 22,000  Level New York Center
Mon 06:38:12 AM 41.6550 -75.4294 292° West 382 440 22,000  Level New York Center
Mon 06:39:12 AM 41.6953 -75.5711 291° West 401 461 22,000  Level New York Center
Mon 06:40:12 AM 41.7375 -75.7078 293° West 401 461 22,000  Level New York Center
Mon 06:41:12 AM 41.7817 -75.8444 293° West 396 456 22,000  Level New York Center
Mon 06:42:12 AM 41.8217 -75.9783 292° West 396 456 22,000  Level New York Center
Mon 06:43:12 AM 41.8636 -76.1125 293° West 396 456 22,000  Level New York Center
Mon 06:44:12 AM 41.9050 -76.2525 292° West 396 456 22,000  Level New York Center
Mon 06:45:12 AM 41.9469 -76.3842 293° West 396 456 22,000  Level New York Center
Mon 06:46:12 AM 41.9881 -76.5217 292° West 396 456 22,000  Level New York Center
Mon 06:47:12 AM 42.0239 -76.6447 291° West 396 456 22,000  Level New York Center
Mon 06:48:12 AM 42.0706 -76.7914 293° West 396 456 22,000  Level New York Center
Mon 06:49:30 AM 42.1200 -76.9586 292° West 397 457 22,000  Level Cleveland Center
Mon 06:50:31 AM 42.1619 -77.0964 292° West 399 459 22,000  Level Cleveland Center
Mon 06:51:32 AM 42.2025 -77.2347 292° West 396 456 22,000  Level Cleveland Center
Mon 06:52:34 AM 42.2425 -77.3731 291° West 395 455 22,000  Level Cleveland Center
Mon 06:53:35 AM 42.2825 -77.5125 291° West 397 457 22,000  Level Cleveland Center
Mon 06:54:37 AM 42.3236 -77.6531 292° West 399 459 22,000 -878 Level Cleveland Center
Mon 06:55:38 AM 42.3714 -77.8194 291° West 394 453 20,200 -2,262 Descending Cleveland Center
Mon 06:56:39 AM 42.4081 -77.9481 291° West 368 423 17,400 -2,829 Descending Cleveland Center
Mon 06:57:41 AM 42.4439 -78.0697 292° West 351 404 14,400 -2,878 Descending Cleveland Center
Mon 06:58:42 AM 42.4767 -78.1903 290° West 341 392 11,500 -2,098 Descending Cleveland Center
Mon 06:59:44 AM 42.5122 -78.2997 294° West 319 367 10,100 -683 Descending Cleveland Center
Mon 07:00:45 AM 42.5436 -78.4097 291° West 313 360 10,100 -146 Level Cleveland Center
Mon 07:01:47 AM 42.5933 -78.5044 306° West 303 349 9,800 -1,317 Descending Cleveland Center
Mon 07:02:48 AM 42.6406 -78.5931 306° West 270 311 7,400 -2,262 Descending Cleveland Center
Mon 07:03:49 AM 42.6850 -78.6644 310° West 240 276 5,200 -1,610 Descending Cleveland Center
Mon 07:04:51 AM 42.7247 -78.7297 310° West 216 249 4,100 -585 Descending Cleveland Center
Mon 07:05:52 AM 42.7628 -78.7864 312° West 211 243 4,000 -488 Descending Cleveland Center
Mon 07:06:54 AM 42.8214 -78.8117 342° North 211 243 3,100 -829 Descending Cleveland Center
Mon 07:07:55 AM 42.8739 -78.8058 North 185 213 2,300 -789 Descending Cleveland Center
Mon 07:08:48 AM 42.9000 -78.7833 32° Northeast 130 150 1,600 -792 Descending Buffalo TRACON

Login

Don't have an account? Register now (free) for customized features, flight alerts, and more!